createdAt,value
2019-02-24T00:01:52.601Z,14.27
2019-02-24T00:04:21.924Z,19.40
2019-02-24T00:06:51.227Z,15.53
2019-02-24T00:09:39.803Z,15.67
2019-02-24T00:12:09.055Z,15.13
2019-02-24T00:14:38.329Z,20.67
2019-02-24T00:17:07.631Z,16.10
2019-02-24T00:19:36.919Z,16.37
2019-02-24T00:22:06.172Z,16.03
2019-02-24T00:24:35.443Z,15.20
2019-02-24T00:27:04.802Z,17.77
2019-02-24T00:29:34.040Z,19.33
2019-02-24T00:32:22.648Z,19.27
2019-02-24T00:34:51.873Z,13.77
2019-02-24T00:37:21.186Z,18.23
2019-02-24T00:39:50.426Z,14.77
2019-02-24T00:42:19.708Z,17.50
2019-02-24T00:44:48.956Z,16.53
2019-02-24T00:47:18.187Z,16.80
2019-02-24T00:49:47.434Z,19.90
2019-02-24T00:52:16.670Z,18.90
2019-02-24T00:54:45.943Z,18.17
2019-02-24T00:57:15.209Z,16.40
2019-02-24T00:59:44.454Z,17.37
2019-02-24T01:02:13.779Z,15.93
2019-02-24T01:04:43.218Z,16.87
2019-02-24T01:07:12.482Z,18.80
2019-02-24T01:09:41.746Z,17.63
2019-02-24T01:12:11.038Z,19.07
2019-02-24T01:14:40.292Z,14.53
2019-02-24T01:17:21.726Z,17.50
2019-02-24T01:19:51.184Z,17.97
2019-02-24T01:22:20.534Z,16.80
2019-02-24T01:24:49.753Z,20.53
2019-02-24T01:27:19.018Z,15.77
2019-02-24T01:29:48.358Z,17.63
2019-02-24T01:32:17.650Z,16.20
2019-02-24T01:34:46.958Z,16.80
2019-02-24T01:37:16.291Z,15.07
2019-02-24T01:39:45.537Z,15.50
2019-02-24T01:42:14.798Z,18.17
2019-02-24T01:44:44.102Z,14.90
2019-02-24T01:47:32.687Z,21.33
2019-02-24T01:50:02.007Z,19.33
2019-02-24T01:52:31.390Z,16.23
2019-02-24T01:55:00.630Z,17.23
2019-02-24T01:57:29.899Z,16.93
2019-02-24T01:59:59.184Z,19.43
2019-02-24T02:02:28.529Z,14.60
2019-02-24T02:04:58.583Z,16.97
2019-02-24T02:07:28.068Z,15.03
2019-02-24T02:09:57.399Z,17.50
2019-02-24T02:12:26.654Z,18.70
2019-02-24T02:14:55.886Z,20.57
2019-02-24T02:17:25.136Z,16.43
2019-02-24T02:20:13.703Z,18.10
2019-02-24T02:22:43.012Z,19.13
2019-02-24T02:25:12.390Z,17.07
2019-02-24T02:27:41.731Z,20.00
2019-02-24T02:30:11.672Z,15.63
2019-02-24T02:32:41.111Z,17.57
2019-02-24T02:35:10.471Z,17.03
2019-02-24T02:37:39.751Z,18.93
2019-02-24T02:40:09.138Z,16.27
2019-02-24T02:42:38.412Z,17.63
2019-02-24T02:45:08.732Z,18.10
2019-02-24T02:47:37.946Z,16.13
2019-02-24T02:50:07.321Z,22.57
2019-02-24T02:52:36.595Z,16.13
2019-02-24T02:55:06.756Z,17.70
2019-02-24T02:57:36.013Z,20.47
2019-02-24T03:00:14.774Z,18.77
2019-02-24T03:02:46.778Z,18.33
2019-02-24T03:05:16.074Z,18.53
2019-02-24T03:08:06.307Z,19.17
2019-02-24T03:10:35.554Z,18.97
2019-02-24T03:13:04.887Z,23.63
2019-02-24T03:15:34.264Z,19.30
2019-02-24T03:18:03.509Z,19.57
2019-02-24T03:20:32.854Z,18.27
2019-02-24T03:23:02.118Z,19.70
2019-02-24T03:25:31.370Z,18.90
2019-02-24T03:28:19.959Z,22.10
2019-02-24T03:30:49.219Z,18.27
2019-02-24T03:33:37.790Z,19.87
2019-02-24T03:36:07.044Z,19.90
2019-02-24T03:38:36.285Z,26.17
2019-02-24T03:41:05.584Z,21.70
2019-02-24T03:43:34.860Z,21.93
2019-02-24T03:46:04.105Z,20.87
2019-02-24T03:48:33.350Z,17.10
2019-02-24T03:51:02.669Z,19.23
2019-02-24T03:53:31.982Z,20.90
2019-02-24T03:56:02.567Z,20.03
2019-02-24T03:58:31.956Z,23.00
2019-02-24T04:01:01.196Z,25.67
2019-02-24T04:03:30.503Z,20.63
2019-02-24T04:05:59.790Z,22.40
2019-02-24T04:08:29.082Z,20.40
2019-02-24T04:10:58.394Z,19.10
2019-02-24T04:13:27.624Z,21.37
2019-02-24T04:15:56.874Z,17.80
2019-02-24T04:18:26.110Z,17.00
2019-02-24T04:20:55.360Z,20.80
2019-02-24T04:23:43.927Z,17.10
2019-02-24T04:26:13.193Z,19.03
2019-02-24T04:28:42.536Z,18.90
2019-02-24T04:31:11.841Z,17.50
2019-02-24T04:33:41.088Z,18.57
2019-02-24T04:36:10.319Z,19.97
2019-02-24T04:38:39.555Z,15.97
2019-02-24T04:41:08.784Z,18.07
2019-02-24T04:43:38.132Z,19.00
2019-02-24T04:46:07.358Z,16.00
2019-02-24T04:48:36.624Z,18.30
2019-02-24T04:51:05.941Z,17.07
2019-02-24T04:53:35.189Z,20.13
2019-02-24T04:56:04.441Z,19.10
2019-02-24T04:58:33.682Z,18.73
2019-02-24T05:01:02.977Z,16.27
2019-02-24T05:03:51.585Z,24.13
2019-02-24T05:06:20.820Z,18.73
2019-02-24T05:08:50.072Z,19.63
2019-02-24T05:11:19.320Z,16.63
2019-02-24T05:13:48.567Z,16.80
2019-02-24T05:16:17.800Z,18.20
2019-02-24T05:18:47.058Z,17.97
2019-02-24T05:21:16.298Z,18.97
2019-02-24T05:23:45.619Z,16.87
2019-02-24T05:26:14.867Z,17.97
2019-02-24T05:28:44.139Z,20.60
2019-02-24T05:31:13.390Z,19.80
2019-02-24T05:33:42.627Z,27.13
2019-02-24T05:36:11.896Z,17.53
2019-02-24T05:38:41.129Z,23.47
2019-02-24T05:41:10.410Z,18.67
2019-02-24T05:43:39.701Z,17.77
2019-02-24T05:46:08.984Z,16.40
2019-02-24T05:48:38.298Z,19.93
2019-02-24T05:51:07.553Z,19.97
2019-02-24T05:53:36.808Z,24.67
2019-02-24T05:56:06.130Z,19.97
2019-02-24T05:58:38.094Z,21.70
2019-02-24T06:01:07.383Z,21.60
2019-02-24T06:03:36.762Z,22.63
2019-02-24T06:06:06.011Z,20.30
2019-02-24T06:08:35.301Z,19.97
2019-02-24T06:11:04.536Z,21.60
2019-02-24T06:13:33.794Z,17.20
2019-02-24T06:16:03.107Z,18.10
2019-02-24T06:18:32.358Z,16.33
2019-02-24T06:21:01.643Z,23.70
2019-02-24T06:23:30.927Z,17.47
2019-02-24T06:26:00.206Z,17.30
2019-02-24T06:28:29.485Z,17.63
2019-02-24T06:30:58.728Z,19.87
2019-02-24T06:33:28.056Z,22.80
2019-02-24T06:36:16.623Z,19.33
2019-02-24T06:38:45.915Z,21.60
2019-02-24T06:41:15.154Z,18.10
2019-02-24T06:43:44.426Z,18.87
2019-02-24T06:46:13.664Z,17.27
2019-02-24T06:48:42.946Z,19.63
2019-02-24T06:51:12.304Z,21.33
2019-02-24T06:53:41.614Z,19.13
2019-02-24T06:56:16.909Z,18.70
2019-02-24T06:58:46.152Z,23.53
2019-02-24T07:01:16.347Z,18.53
2019-02-24T07:03:45.571Z,16.03
2019-02-24T07:06:14.842Z,17.30
2019-02-24T07:08:44.067Z,21.60
2019-02-24T07:11:13.314Z,18.27
2019-02-24T07:13:42.567Z,21.27
2019-02-24T07:16:11.830Z,18.47
2019-02-24T07:18:41.146Z,23.40
2019-02-24T07:21:10.416Z,22.93
2019-02-24T07:23:39.737Z,20.27
2019-02-24T07:26:09.124Z,19.63
2019-02-24T07:28:38.385Z,16.43
2019-02-24T07:31:07.626Z,16.33
2019-02-24T07:33:36.895Z,13.80
2019-02-24T07:36:06.424Z,12.77
2019-02-24T07:38:35.662Z,14.97
2019-02-24T07:41:04.990Z,12.40
2019-02-24T07:43:34.258Z,12.17
2019-02-24T07:46:03.498Z,16.70
2019-02-24T07:48:32.839Z,18.33
2019-02-24T07:51:02.169Z,12.00
2019-02-24T07:53:31.477Z,14.10
2019-02-24T07:56:01.711Z,14.17
2019-02-24T07:58:30.983Z,12.97
2019-02-24T08:01:00.230Z,10.70
2019-02-24T08:03:33.531Z,10.63
2019-02-24T08:06:04.453Z,8.83
2019-02-24T08:08:33.682Z,9.50
2019-02-24T08:11:02.975Z,11.03
2019-02-24T08:13:32.207Z,13.70
2019-02-24T08:16:01.475Z,12.90
2019-02-24T08:18:30.757Z,9.43
2019-02-24T08:21:01.209Z,10.33
2019-02-24T08:23:30.639Z,9.27
2019-02-24T08:25:59.878Z,11.10
2019-02-24T08:28:29.135Z,11.17
2019-02-24T08:30:58.436Z,11.20
2019-02-24T08:33:27.737Z,12.70
2019-02-24T08:35:56.975Z,12.47
2019-02-24T08:38:26.294Z,12.63
2019-02-24T08:40:55.624Z,13.50
2019-02-24T08:43:24.875Z,13.87
2019-02-24T08:45:54.143Z,21.33
2019-02-24T08:48:23.403Z,19.70
2019-02-24T08:50:52.663Z,11.20
2019-02-24T08:53:21.907Z,13.77
2019-02-24T08:55:51.172Z,13.10
2019-02-24T08:58:20.469Z,14.33
2019-02-24T09:00:51.350Z,14.20
2019-02-24T09:03:20.773Z,12.40
2019-02-24T09:05:50.023Z,11.50
2019-02-24T09:08:19.263Z,10.73
2019-02-24T09:10:48.581Z,9.60
2019-02-24T09:13:17.918Z,9.50
2019-02-24T09:15:47.168Z,9.27
2019-02-24T09:18:16.441Z,10.90
2019-02-24T09:20:45.790Z,12.03
2019-02-24T09:23:15.218Z,9.07
2019-02-24T09:25:44.526Z,9.07
2019-02-24T09:28:13.803Z,8.87
2019-02-24T09:30:43.099Z,6.83
2019-02-24T09:33:12.367Z,7.53
2019-02-24T09:35:41.623Z,6.60
2019-02-24T09:38:10.899Z,7.97
2019-02-24T09:40:40.162Z,8.03
2019-02-24T09:43:09.406Z,8.03
2019-02-24T09:45:44.337Z,7.70
2019-02-24T09:48:13.620Z,7.67
2019-02-24T09:50:42.902Z,8.40
2019-02-24T09:53:12.136Z,8.10
2019-02-24T09:55:41.452Z,8.60
2019-02-24T09:58:10.722Z,6.77
2019-02-24T10:00:39.981Z,9.10
2019-02-24T10:03:09.318Z,7.10
2019-02-24T10:05:39.102Z,6.20
2019-02-24T10:08:08.523Z,7.47
2019-02-24T10:10:37.739Z,6.37
2019-02-24T10:13:07.043Z,6.93
2019-02-24T10:15:36.318Z,6.83
2019-02-24T10:18:05.574Z,6.37
2019-02-24T10:20:34.991Z,5.60
2019-02-24T10:23:04.372Z,5.80
2019-02-24T10:25:33.778Z,5.83
2019-02-24T10:28:03.106Z,5.93
2019-02-24T10:30:32.400Z,6.00
2019-02-24T10:33:01.687Z,6.00
2019-02-24T10:35:31.421Z,5.50
2019-02-24T10:38:00.774Z,6.00
2019-02-24T10:40:31.239Z,5.03
2019-02-24T10:43:00.516Z,4.90
2019-02-24T10:45:29.879Z,4.73
2019-02-24T10:47:59.242Z,5.90
2019-02-24T10:50:28.479Z,5.30
2019-02-24T10:52:57.765Z,4.87
2019-02-24T10:55:26.987Z,4.60
2019-02-24T10:57:56.283Z,5.30
2019-02-24T11:00:25.594Z,4.83
2019-02-24T11:02:54.870Z,4.83
2019-02-24T11:05:30.420Z,5.53
2019-02-24T11:08:01.371Z,6.47
2019-02-24T11:10:30.628Z,7.00
2019-02-24T11:13:19.257Z,5.50
2019-02-24T11:16:07.829Z,5.13
2019-02-24T11:18:37.180Z,5.77
2019-02-24T11:21:06.513Z,5.10
2019-02-24T11:23:35.759Z,8.70
2019-02-24T11:26:05.024Z,5.43
2019-02-24T11:28:34.275Z,4.83
2019-02-24T11:31:03.646Z,4.80
2019-02-24T11:33:32.891Z,5.47
2019-02-24T11:36:21.515Z,5.50
2019-02-24T11:38:50.741Z,5.43
2019-02-24T11:41:20.011Z,13.20
2019-02-24T11:43:49.270Z,9.00
2019-02-24T11:46:18.619Z,6.07
2019-02-24T11:48:47.967Z,5.40
2019-02-24T11:51:17.218Z,5.30
2019-02-24T11:53:46.562Z,5.57
2019-02-24T11:56:15.874Z,6.47
2019-02-24T11:58:45.157Z,6.27
2019-02-24T12:01:14.595Z,6.40
2019-02-24T12:03:45.210Z,5.47
2019-02-24T12:06:17.385Z,6.03
2019-02-24T12:08:46.727Z,5.90
2019-02-24T12:11:16.068Z,6.23
2019-02-24T12:13:45.361Z,5.83
2019-02-24T12:16:14.593Z,6.13
2019-02-24T12:18:43.875Z,6.40
2019-02-24T12:21:13.148Z,5.67
2019-02-24T12:23:42.401Z,5.80
2019-02-24T12:26:11.668Z,5.17
2019-02-24T12:28:40.959Z,5.77
2019-02-24T12:31:10.210Z,4.90
2019-02-24T12:33:41.396Z,5.10
2019-02-24T12:36:29.937Z,4.87
2019-02-24T12:38:59.314Z,5.67
2019-02-24T12:41:28.703Z,4.90
2019-02-24T12:43:58.099Z,4.90
2019-02-24T12:46:29.135Z,4.10
2019-02-24T12:48:58.495Z,4.33
2019-02-24T12:51:27.850Z,6.93
2019-02-24T12:53:57.191Z,4.63
2019-02-24T12:56:26.470Z,4.30
2019-02-24T12:58:55.814Z,4.50
2019-02-24T13:01:25.140Z,3.70
2019-02-24T13:03:54.456Z,3.93
2019-02-24T13:06:23.851Z,3.80
2019-02-24T13:08:53.264Z,3.63
2019-02-24T13:11:22.498Z,3.73
2019-02-24T13:13:51.780Z,3.90
2019-02-24T13:16:21.196Z,4.10
2019-02-24T13:18:50.482Z,4.53
2019-02-24T13:21:19.830Z,3.90
2019-02-24T13:23:49.240Z,4.30
2019-02-24T13:26:18.501Z,4.57
2019-02-24T13:28:50.534Z,5.17
2019-02-24T13:31:18.922Z,5.00
2019-02-24T13:33:48.256Z,5.40
2019-02-24T13:36:17.563Z,4.43
2019-02-24T13:38:46.937Z,4.87
2019-02-24T13:41:16.299Z,4.27
2019-02-24T13:43:45.553Z,4.63
2019-02-24T13:46:14.802Z,5.10
2019-02-24T13:48:44.061Z,3.93
2019-02-24T13:51:13.448Z,4.63
2019-02-24T13:53:42.799Z,4.10
2019-02-24T13:56:12.131Z,4.20
2019-02-24T13:58:41.366Z,3.37
2019-02-24T14:01:10.694Z,4.67
2019-02-24T14:03:39.960Z,4.87
2019-02-24T14:06:09.251Z,5.60
2019-02-24T14:08:57.930Z,3.83
2019-02-24T14:11:27.215Z,4.20
2019-02-24T14:13:56.471Z,4.20
2019-02-24T14:16:25.734Z,4.33
2019-02-24T14:18:55.119Z,3.10
2019-02-24T14:21:43.867Z,4.50
2019-02-24T14:24:13.120Z,4.33
2019-02-24T14:26:42.401Z,4.70
2019-02-24T14:29:14.605Z,4.97
2019-02-24T14:31:43.927Z,4.73
2019-02-24T14:34:13.203Z,4.63
2019-02-24T14:36:42.493Z,5.70
2019-02-24T14:39:11.859Z,4.70
2019-02-24T14:41:41.090Z,5.40
2019-02-24T14:44:10.408Z,6.17
2019-02-24T14:46:39.669Z,5.97
2019-02-24T14:49:08.972Z,5.97
2019-02-24T14:51:38.223Z,5.40
2019-02-24T14:54:07.573Z,5.33
2019-02-24T14:56:36.804Z,5.27
2019-02-24T14:59:06.181Z,5.83
2019-02-24T15:01:35.563Z,4.90
2019-02-24T15:04:04.822Z,3.33
2019-02-24T15:06:34.088Z,3.77
2019-02-24T15:09:22.660Z,2.97
2019-02-24T15:11:52.099Z,3.13
2019-02-24T15:14:21.384Z,2.20
2019-02-24T15:16:50.750Z,3.37
2019-02-24T15:19:19.996Z,4.57
2019-02-24T15:21:49.331Z,5.10
2019-02-24T15:24:18.582Z,3.63
2019-02-24T15:26:48.064Z,4.30
2019-02-24T15:29:17.367Z,10.00
2019-02-24T15:31:46.807Z,7.17
2019-02-24T15:34:16.221Z,5.60
2019-02-24T15:36:45.458Z,5.90
2019-02-24T15:39:14.911Z,5.57
2019-02-24T15:41:44.195Z,4.90
2019-02-24T15:44:13.667Z,4.77
2019-02-24T15:46:42.937Z,4.10
2019-02-24T15:49:12.273Z,3.67
2019-02-24T15:51:41.636Z,3.10
2019-02-24T15:54:10.968Z,3.67
2019-02-24T15:56:40.223Z,3.03
2019-02-24T15:59:09.462Z,4.50
2019-02-24T16:01:38.715Z,3.43
2019-02-24T16:04:07.960Z,4.50
2019-02-24T16:06:37.564Z,4.87
2019-02-24T16:09:08.262Z,4.73
2019-02-24T16:11:37.539Z,5.27
2019-02-24T16:14:06.889Z,5.40
2019-02-24T16:16:36.231Z,5.97
2019-02-24T16:19:24.815Z,5.10
2019-02-24T16:21:54.167Z,7.70
2019-02-24T16:24:23.457Z,8.33
2019-02-24T16:26:52.713Z,5.20
2019-02-24T16:29:21.996Z,4.90
2019-02-24T16:31:51.436Z,8.80
2019-02-24T16:34:40.077Z,7.33
2019-02-24T16:37:09.430Z,6.20
2019-02-24T16:39:38.786Z,7.13
2019-02-24T16:42:08.043Z,5.23
2019-02-24T16:44:37.465Z,6.70
2019-02-24T16:47:06.932Z,7.70
2019-02-24T16:49:36.192Z,5.53
2019-02-24T16:52:05.542Z,5.23
2019-02-24T16:54:34.812Z,8.37
2019-02-24T16:57:05.882Z,8.63
2019-02-24T16:59:35.433Z,9.03
2019-02-24T17:02:05.039Z,6.90
2019-02-24T17:04:34.397Z,6.67
2019-02-24T17:07:23.160Z,6.30
2019-02-24T17:09:52.640Z,6.20
2019-02-24T17:12:21.905Z,7.23
2019-02-24T17:14:51.143Z,7.07
2019-02-24T17:17:20.411Z,6.13
2019-02-24T17:19:49.678Z,6.57
2019-02-24T17:22:38.263Z,8.20
2019-02-24T17:25:09.507Z,10.40
2019-02-24T17:27:38.931Z,7.00
2019-02-24T17:30:11.542Z,6.13
2019-02-24T17:32:40.810Z,6.20
2019-02-24T17:35:31.016Z,7.27
2019-02-24T17:38:00.345Z,8.43
2019-02-24T17:40:29.608Z,6.80
2019-02-24T17:42:58.931Z,10.07
2019-02-24T17:45:28.182Z,7.53
2019-02-24T17:47:57.556Z,8.57
2019-02-24T17:50:28.357Z,8.57
2019-02-24T17:52:57.711Z,7.53
2019-02-24T17:55:27.090Z,8.17
2019-02-24T17:57:56.335Z,8.90
2019-02-24T18:00:36.694Z,10.13
2019-02-24T18:03:05.939Z,9.17
2019-02-24T18:05:35.272Z,9.67
2019-02-24T18:08:04.536Z,12.33
2019-02-24T18:10:33.892Z,12.87
2019-02-24T18:13:03.252Z,12.37
2019-02-24T18:15:32.595Z,11.77
2019-02-24T18:18:01.922Z,11.20
2019-02-24T18:20:31.205Z,11.27
2019-02-24T18:23:00.575Z,12.20
2019-02-24T18:25:29.908Z,14.37
2019-02-24T18:27:59.320Z,14.57
2019-02-24T18:30:29.815Z,16.00
2019-02-24T18:32:59.114Z,16.43
2019-02-24T18:35:28.558Z,15.27
2019-02-24T18:37:57.847Z,16.50
2019-02-24T18:40:27.335Z,14.00
2019-02-24T18:43:00.213Z,18.43
2019-02-24T18:45:27.569Z,12.13
2019-02-24T18:47:56.902Z,13.13
2019-02-24T18:50:45.530Z,11.83
2019-02-24T18:53:14.793Z,12.77
2019-02-24T18:55:44.094Z,18.40
2019-02-24T18:58:13.451Z,12.10
2019-02-24T19:00:46.308Z,10.43
2019-02-24T19:03:15.582Z,13.40
2019-02-24T19:05:57.451Z,14.83
2019-02-24T19:08:26.721Z,11.53
2019-02-24T19:10:57.403Z,12.47
2019-02-24T19:13:26.679Z,12.07
2019-02-24T19:15:55.960Z,17.30
2019-02-24T19:18:25.287Z,10.87
2019-02-24T19:20:54.568Z,16.90
2019-02-24T19:23:23.945Z,12.70
2019-02-24T19:25:53.305Z,13.17
2019-02-24T19:28:22.605Z,9.67
2019-02-24T19:30:51.896Z,11.47
2019-02-24T19:33:21.163Z,12.93
2019-02-24T19:35:50.498Z,12.03
2019-02-24T19:38:19.762Z,10.37
2019-02-24T19:40:49.088Z,9.27
2019-02-24T19:43:18.400Z,10.83
2019-02-24T19:45:47.683Z,12.27
2019-02-24T19:48:17.067Z,11.97
2019-02-24T19:50:46.450Z,16.23
2019-02-24T19:53:15.732Z,12.43
2019-02-24T19:55:45.077Z,14.00
2019-02-24T19:58:14.404Z,15.63
2019-02-24T20:00:43.770Z,15.50
2019-02-24T20:03:14.074Z,16.17
2019-02-24T20:05:45.493Z,14.40
2019-02-24T20:08:14.849Z,15.37
2019-02-24T20:10:44.146Z,16.97
2019-02-24T20:13:13.463Z,17.47
2019-02-24T20:15:42.790Z,14.23
2019-02-24T20:18:12.101Z,15.27
2019-02-24T20:20:41.379Z,17.40
2019-02-24T20:23:10.623Z,15.23
2019-02-24T20:25:39.907Z,14.90
2019-02-24T20:28:09.247Z,15.87
2019-02-24T20:30:38.595Z,13.27
2019-02-24T20:33:07.921Z,12.80
2019-02-24T20:35:37.319Z,15.77
2019-02-24T20:38:06.582Z,23.97
2019-02-24T20:40:35.837Z,23.63
2019-02-24T20:43:05.225Z,24.87
2019-02-24T20:45:34.602Z,20.20
2019-02-24T20:48:03.937Z,20.57
2019-02-24T20:50:34.543Z,19.70
2019-02-24T20:53:04.253Z,16.20
2019-02-24T20:55:33.615Z,17.67
2019-02-24T20:58:02.870Z,17.07
2019-02-24T21:00:37.958Z,19.53
2019-02-24T21:03:07.287Z,18.43
2019-02-24T21:05:55.904Z,17.67
2019-02-24T21:08:25.287Z,16.50
2019-02-24T21:10:54.712Z,19.07
2019-02-24T21:13:23.948Z,18.03
2019-02-24T21:15:53.205Z,21.57
2019-02-24T21:18:22.489Z,17.17
2019-02-24T21:20:51.739Z,18.40
2019-02-24T21:23:40.352Z,19.63
2019-02-24T21:26:09.849Z,20.47
2019-02-24T21:28:39.243Z,20.07
2019-02-24T21:31:08.515Z,19.73
2019-02-24T21:33:37.924Z,19.80
2019-02-24T21:36:07.230Z,18.53
2019-02-24T21:38:36.612Z,18.70
2019-02-24T21:41:05.886Z,18.70
2019-02-24T21:43:35.173Z,18.87
2019-02-24T21:46:04.444Z,16.37
2019-02-24T21:48:33.680Z,29.07
2019-02-24T21:51:22.292Z,16.50
2019-02-24T21:53:51.549Z,20.47
2019-02-24T21:56:20.850Z,17.30
2019-02-24T21:58:50.159Z,16.97
2019-02-24T22:01:19.411Z,21.63
2019-02-24T22:03:48.703Z,18.00
2019-02-24T22:06:17.926Z,19.00
2019-02-24T22:08:47.211Z,18.20
2019-02-24T22:11:35.866Z,15.60
2019-02-24T22:14:05.222Z,16.30
2019-02-24T22:16:34.546Z,12.60
2019-02-24T22:19:03.926Z,13.20
2019-02-24T22:21:33.295Z,15.27
2019-02-24T22:24:03.807Z,17.83
2019-02-24T22:26:33.044Z,14.43
2019-02-24T22:29:03.413Z,18.50
2019-02-24T22:31:32.754Z,17.50
2019-02-24T22:34:02.073Z,18.00
2019-02-24T22:36:31.318Z,20.47
2019-02-24T22:39:00.582Z,18.20
2019-02-24T22:41:29.926Z,18.73
2019-02-24T22:43:59.280Z,20.23
2019-02-24T22:46:28.604Z,21.30
2019-02-24T22:48:57.925Z,18.80
2019-02-24T22:51:28.378Z,21.63
2019-02-24T22:53:57.639Z,19.13
2019-02-24T22:56:26.932Z,20.80
2019-02-24T22:58:56.149Z,19.57
2019-02-24T23:01:28.329Z,21.93
2019-02-24T23:04:09.159Z,20.67
2019-02-24T23:06:38.491Z,22.53
2019-02-24T23:09:10.842Z,23.53
2019-02-24T23:11:59.546Z,20.70
2019-02-24T23:14:28.850Z,21.13
2019-02-24T23:16:58.198Z,24.40
2019-02-24T23:19:27.525Z,23.83
2019-02-24T23:21:56.907Z,16.87
2019-02-24T23:24:26.169Z,19.10
2019-02-24T23:27:07.923Z,20.90
2019-02-24T23:29:37.221Z,20.90
2019-02-24T23:32:06.456Z,23.87
2019-02-24T23:34:35.705Z,21.77
2019-02-24T23:37:24.315Z,24.33
2019-02-24T23:39:53.542Z,22.00
2019-02-24T23:42:22.986Z,22.20
2019-02-24T23:44:52.209Z,21.50
2019-02-24T23:47:21.468Z,21.60
2019-02-24T23:49:50.707Z,20.60
2019-02-24T23:52:19.986Z,22.17
2019-02-24T23:54:49.223Z,23.73
2019-02-24T23:57:18.554Z,22.20
2019-02-24T23:59:47.846Z,21.10
